Time;durP1;ratioP1;P1;durP2;ratioP2;P2;SDS_P1;SDS_P2;PMS_P1;PMS_P2;Temp;Humidity;BMP_temperature;BMP_pressure;BME280_temperature;BME280_humidity;BME280_pressure;Samples;Min_cycle;Max_cycle;Signal;HPM_P1;HPM_P2
2022/01/05 00:00:39;;;;;;;0.40;0.28;;;3.60;91.70;;;;;;6275418;22;20019;-80
2022/01/05 00:03:05;;;;;;;0.90;0.32;;;3.70;91.70;;;;;;6273643;22;20075;-78
2022/01/05 00:05:32;;;;;;;0.30;0.20;;;3.60;91.70;;;;;;6274058;22;20027;-78
2022/01/05 00:07:57;;;;;;;1.15;0.30;;;3.70;91.70;;;;;;6297751;22;20483;-77
2022/01/05 00:10:23;;;;;;;2.40;0.30;;;3.60;91.70;;;;;;6272500;22;20035;-77
2022/01/05 00:12:49;;;;;;;0.77;0.30;;;3.60;91.60;;;;;;6272570;22;20349;-80
2022/01/05 00:15:16;;;;;;;1.05;0.30;;;3.60;91.60;;;;;;6246681;22;20458;-76
2022/01/05 00:17:41;;;;;;;1.25;0.30;;;3.50;91.60;;;;;;6272260;22;20093;-76
2022/01/05 00:20:08;;;;;;;1.50;0.20;;;3.50;91.70;;;;;;6273773;22;20000;-80
2022/01/05 00:22:33;;;;;;;1.48;0.40;;;3.50;91.70;;;;;;6273781;22;20015;-80
2022/01/05 00:24:59;;;;;;;0.40;0.25;;;3.50;91.70;;;;;;6247222;22;20004;-79
2022/01/05 00:27:25;;;;;;;0.47;0.10;;;3.40;91.70;;;;;;6274023;22;20007;-80
2022/01/05 00:29:51;;;;;;;0.60;0.30;;;3.40;91.70;;;;;;6246794;22;20011;-81
2022/01/05 00:32:16;;;;;;;0.82;0.32;;;3.30;91.70;;;;;;6272404;22;20071;-79
2022/01/05 00:34:42;;;;;;;0.73;0.30;;;3.30;91.70;;;;;;6249085;22;20787;-80
2022/01/05 00:37:08;;;;;;;0.65;0.35;;;3.30;91.80;;;;;;6274185;22;20007;-80
2022/01/05 00:39:34;;;;;;;0.32;0.20;;;3.30;91.80;;;;;;6274880;22;20324;-79
2022/01/05 00:42:00;;;;;;;2.58;0.50;;;3.20;91.70;;;;;;6246534;22;19996;-80
2022/01/05 00:44:26;;;;;;;1.48;0.30;;;3.20;91.80;;;;;;6221174;22;20004;-80
2022/01/05 00:46:52;;;;;;;0.82;0.35;;;3.20;91.70;;;;;;6221917;22;20309;-78
2022/01/05 00:49:18;;;;;;;0.93;0.22;;;3.10;91.70;;;;;;6271836;22;20004;-77
2022/01/05 00:51:43;;;;;;;0.68;0.25;;;3.10;91.70;;;;;;6271966;22;20036;-76
2022/01/05 00:54:09;;;;;;;0.93;0.30;;;3.10;91.70;;;;;;6272177;22;20402;-79
2022/01/05 00:56:35;;;;;;;0.25;0.17;;;3.10;91.80;;;;;;6221353;22;20305;-79
2022/01/05 00:59:02;;;;;;;1.55;0.52;;;3.10;91.80;;;;;;6271463;22;20026;-81
2022/01/05 01:01:28;;;;;;;0.63;0.20;;;3.10;91.80;;;;;;6272154;22;20004;-78
2022/01/05 01:03:53;;;;;;;0.30;0.30;;;3.00;91.70;;;;;;6274807;22;20027;-79
2022/01/05 01:06:19;;;;;;;1.17;0.40;;;3.20;91.70;;;;;;6275034;22;20421;-80
2022/01/05 01:08:45;;;;;;;1.15;0.40;;;3.10;91.60;;;;;;6246482;22;20010;-80
2022/01/05 01:11:11;;;;;;;1.00;0.25;;;3.10;91.60;;;;;;6272229;22;20087;-79
2022/01/05 01:13:36;;;;;;;1.98;0.28;;;3.10;91.60;;;;;;6272866;22;20003;-83
2022/01/05 01:16:02;;;;;;;0.95;0.40;;;3.00;91.60;;;;;;6247234;22;20448;-79
2022/01/05 01:18:28;;;;;;;3.60;0.52;;;3.00;91.60;;;;;;6274069;22;19992;-81
2022/01/05 01:20:55;;;;;;;1.00;0.43;;;3.00;91.60;;;;;;6222083;22;20018;-84
2022/01/05 01:23:22;;;;;;;0.57;0.40;;;2.90;91.50;;;;;;6247719;22;20098;-81
2022/01/05 01:25:50;;;;;;;1.25;0.32;;;3.20;91.60;;;;;;6222946;22;20050;-77
2022/01/05 01:28:16;;;;;;;1.60;0.55;;;3.00;91.50;;;;;;6273497;22;20063;-79
2022/01/05 01:30:42;;;;;;;0.73;0.38;;;2.90;91.50;;;;;;6250006;22;20000;-77
2022/01/05 01:33:08;;;;;;;1.38;0.40;;;3.00;91.50;;;;;;6276924;22;20007;-79
2022/01/05 01:35:33;;;;;;;0.88;0.40;;;3.00;91.50;;;;;;6247199;22;20051;-78
2022/01/05 01:37:59;;;;;;;0.93;0.45;;;3.00;91.40;;;;;;6273427;22;20000;-81
2022/01/05 01:40:25;;;;;;;2.08;0.55;;;3.00;91.40;;;;;;6222292;22;20002;-82
2022/01/05 01:42:51;;;;;;;1.23;0.43;;;3.00;91.40;;;;;;6273485;22;20359;-78
2022/01/05 01:45:19;;;;;;;3.38;0.60;;;3.10;91.50;;;;;;6249943;22;20000;-82
2022/01/05 01:47:46;;;;;;;0.98;0.52;;;3.10;91.30;;;;;;6275183;22;20420;-78
2022/01/05 01:50:12;;;;;;;6.03;0.85;;;3.20;91.20;;;;;;6247360;22;20628;-78
2022/01/05 01:52:38;;;;;;;1.33;0.60;;;3.10;91.20;;;;;;6298554;22;20004;-78
2022/01/05 01:55:04;;;;;;;0.70;0.40;;;3.10;91.10;;;;;;6274384;22;19999;-78
2022/01/05 01:57:34;;;;;;;1.88;0.50;;;3.10;91.10;;;;;;6247960;22;20057;-78
2022/01/05 02:00:01;;;;;;;0.65;0.30;;;3.00;91.20;;;;;;6273094;22;19996;-78
2022/01/05 02:02:27;;;;;;;0.50;0.28;;;3.00;91.20;;;;;;6273014;22;20007;-78
2022/01/05 02:04:52;;;;;;;0.70;0.45;;;3.00;91.20;;;;;;6273028;22;19996;-81
2022/01/05 02:07:18;;;;;;;1.17;0.43;;;3.00;91.20;;;;;;6247348;22;20027;-82
2022/01/05 02:09:44;;;;;;;0.50;0.30;;;2.90;91.20;;;;;;6247781;22;20031;-81
2022/01/05 02:12:10;;;;;;;1.70;0.50;;;2.90;91.30;;;;;;6274508;22;20003;-82
2022/01/05 02:14:36;;;;;;;2.03;0.40;;;2.90;91.30;;;;;;6247606;22;20000;-81
2022/01/05 02:17:08;;;;;;;2.08;0.60;;;2.80;91.30;;;;;;6247415;22;20015;-82
2022/01/05 02:19:35;;;;;;;0.40;0.30;;;2.80;91.30;;;;;;6248911;22;20003;-82
2022/01/05 02:22:01;;;;;;;3.30;0.70;;;2.90;91.30;;;;;;6273132;22;20000;-81
2022/01/05 02:24:27;;;;;;;1.77;0.52;;;2.90;91.30;;;;;;6221558;22;20432;-81
2022/01/05 02:26:53;;;;;;;1.83;0.80;;;2.90;91.30;;;;;;6272791;22;20000;-81
2022/01/05 02:29:19;;;;;;;2.03;0.63;;;3.00;91.30;;;;;;6272861;22;20010;-81
2022/01/05 02:31:44;;;;;;;1.95;0.55;;;2.90;91.20;;;;;;6272699;22;20431;-81
2022/01/05 02:34:10;;;;;;;2.47;0.65;;;2.90;91.20;;;;;;6222118;22;20010;-82
2022/01/05 02:36:36;;;;;;;1.95;0.50;;;2.90;91.10;;;;;;6221776;22;20094;-82
2022/01/05 02:39:02;;;;;;;0.60;0.40;;;2.90;91.10;;;;;;6247316;22;20050;-82
2022/01/05 02:41:28;;;;;;;2.22;0.55;;;2.90;91.10;;;;;;6273366;22;19999;-82
2022/01/05 02:43:54;;;;;;;1.02;0.40;;;3.00;91.10;;;;;;6272694;22;20003;-83
2022/01/05 02:46:22;;;;;;;1.17;0.50;;;2.90;91.00;;;;;;6221834;22;20058;-81
2022/01/05 02:48:51;;;;;;;1.85;0.68;;;2.90;91.00;;;;;;6247753;22;20039;-80
2022/01/05 02:51:17;;;;;;;0.82;0.50;;;2.90;91.00;;;;;;6268801;22;20029;-81
2022/01/05 02:53:43;;;;;;;2.42;0.60;;;2.90;91.00;;;;;;6247374;22;20008;-80
2022/01/05 02:56:09;;;;;;;1.20;0.60;;;2.90;91.00;;;;;;6274669;22;20047;-81
2022/01/05 02:58:35;;;;;;;2.28;1.20;;;2.80;90.90;;;;;;6247522;22;20004;-81
2022/01/05 03:01:01;;;;;;;3.15;0.70;;;2.80;90.90;;;;;;6247167;22;20019;-80
2022/01/05 03:03:27;;;;;;;1.67;0.60;;;2.90;90.90;;;;;;6272620;22;20088;-81
2022/01/05 03:05:53;;;;;;;2.72;0.80;;;2.90;90.90;;;;;;6221923;22;20337;-81
2022/01/05 03:08:18;;;;;;;3.60;0.98;;;2.90;90.80;;;;;;6273106;22;20010;-81
2022/01/05 03:10:44;;;;;;;2.00;0.50;;;2.90;90.80;;;;;;6273280;22;20418;-81
2022/01/05 03:13:10;;;;;;;2.17;0.85;;;2.90;90.80;;;;;;6247105;22;20008;-81
2022/01/05 03:15:36;;;;;;;2.53;0.75;;;3.00;90.80;;;;;;6221987;22;20087;-81
2022/01/05 03:18:04;;;;;;;2.30;0.80;;;2.90;90.80;;;;;;6247006;22;20003;-82
2022/01/05 03:20:31;;;;;;;2.90;0.75;;;2.90;90.70;;;;;;6298587;22;20004;-81
2022/01/05 03:22:58;;;;;;;1.75;0.45;;;2.90;90.70;;;;;;6247866;22;20375;-82
2022/01/05 03:25:24;;;;;;;4.78;1.00;;;2.90;90.70;;;;;;6221985;22;19999;-82
2022/01/05 03:27:51;;;;;;;2.33;0.68;;;2.90;90.70;;;;;;6241153;22;20004;-81
2022/01/05 03:30:20;;;;;;;0.85;0.40;;;2.90;90.70;;;;;;6298161;22;20010;-81
2022/01/05 03:35:34;;;;;;;1.05;0.60;;;2.90;90.70;;;;;;6272719;22;20089;-82
2022/01/05 03:38:01;;;;;;;1.48;0.57;;;2.80;90.70;;;;;;6247302;22;20391;-82
2022/01/05 03:40:27;;;;;;;2.33;0.55;;;2.80;90.70;;;;;;6247238;22;20000;-81
2022/01/05 03:42:53;;;;;;;3.60;0.90;;;2.70;90.70;;;;;;6272504;22;20007;-82
2022/01/05 03:45:19;;;;;;;3.58;0.90;;;2.80;90.70;;;;;;6246701;22;20003;-82
2022/01/05 03:47:45;;;;;;;1.38;0.65;;;2.70;90.70;;;;;;6273087;22;20473;-81
2022/01/05 03:50:11;;;;;;;1.85;0.70;;;2.70;90.70;;;;;;6274440;22;20047;-82
2022/01/05 03:52:37;;;;;;;2.95;0.90;;;2.70;90.70;;;;;;6221964;22;20084;-82
2022/01/05 03:55:06;;;;;;;5.40;0.90;;;2.70;90.70;;;;;;6246748;22;20069;-81
2022/01/05 03:57:32;;;;;;;3.17;0.90;;;2.70;90.70;;;;;;6222386;22;20000;-82
2022/01/05 03:59:59;;;;;;;1.10;0.50;;;2.80;90.70;;;;;;6222145;22;20030;-83
2022/01/05 04:02:25;;;;;;;4.57;0.98;;;2.80;90.60;;;;;;6221927;22;20010;-81
2022/01/05 04:04:51;;;;;;;5.10;0.80;;;2.70;90.60;;;;;;6247085;22;19996;-81
2022/01/05 04:07:17;;;;;;;3.58;0.90;;;2.80;90.60;;;;;;6247216;22;20424;-82
2022/01/05 04:09:43;;;;;;;1.60;0.73;;;2.70;90.60;;;;;;6247273;22;20078;-82
2022/01/05 04:12:09;;;;;;;6.55;1.20;;;2.70;90.60;;;;;;6273506;22;20380;-81
2022/01/05 04:14:35;;;;;;;0.82;0.50;;;2.70;90.60;;;;;;6246883;22;20000;-82
2022/01/05 04:17:01;;;;;;;2.22;0.88;;;2.70;90.60;;;;;;6246643;22;20094;-82
2022/01/05 04:19:27;;;;;;;1.35;0.50;;;2.80;90.60;;;;;;6273014;22;19996;-82
2022/01/05 04:21:52;;;;;;;2.95;0.88;;;2.80;90.60;;;;;;6272289;22;19996;-81
2022/01/05 04:24:18;;;;;;;2.50;0.63;;;2.70;90.60;;;;;;6247765;22;20324;-82
2022/01/05 04:26:44;;;;;;;4.63;1.05;;;2.70;90.60;;;;;;6247674;22;20078;-82
2022/01/05 04:29:10;;;;;;;4.25;1.05;;;2.70;90.60;;;;;;6272221;22;20007;-82
2022/01/05 04:31:36;;;;;;;1.80;0.70;;;2.70;90.50;;;;;;6273710;22;20019;-82
2022/01/05 04:34:02;;;;;;;2.63;0.73;;;2.70;90.50;;;;;;6247165;22;20038;-82
2022/01/05 04:36:28;;;;;;;2.05;0.68;;;2.70;90.50;;;;;;6246439;22;20023;-82
2022/01/05 04:38:54;;;;;;;2.85;0.80;;;2.70;90.60;;;;;;6272522;22;20082;-82
2022/01/05 04:41:20;;;;;;;1.58;0.50;;;2.70;90.60;;;;;;6246681;22;20000;-82
2022/01/05 04:43:45;;;;;;;2.78;0.80;;;2.60;90.60;;;;;;6221367;22;20004;-82
2022/01/05 04:46:11;;;;;;;2.40;0.55;;;2.70;90.60;;;;;;6246377;22;20035;-82
2022/01/05 04:48:37;;;;;;;3.90;0.90;;;2.60;90.60;;;;;;6223104;22;20069;-81
2022/01/05 04:51:04;;;;;;;1.38;0.60;;;2.70;90.70;;;;;;6222700;22;20000;-81
2022/01/05 04:53:29;;;;;;;2.80;0.88;;;2.70;90.60;;;;;;6248550;22;20019;-81
2022/01/05 04:55:55;;;;;;;3.65;0.85;;;2.70;90.60;;;;;;6248128;22;20389;-81
2022/01/05 04:58:21;;;;;;;2.00;0.75;;;2.70;90.50;;;;;;6247947;22;19999;-81
2022/01/05 05:00:47;;;;;;;1.92;0.65;;;2.80;90.80;;;;;;6273842;22;20061;-81
2022/01/05 05:03:12;;;;;;;1.88;0.70;;;2.70;90.50;;;;;;6273515;22;20003;-81
2022/01/05 05:05:39;;;;;;;1.92;0.65;;;2.80;90.50;;;;;;6249288;22;20082;-82
2022/01/05 05:08:05;;;;;;;2.47;0.68;;;2.80;90.50;;;;;;6273608;22;20014;-81
2022/01/05 05:10:31;;;;;;;2.83;0.68;;;2.80;90.40;;;;;;6275854;22;20459;-82
2022/01/05 05:12:57;;;;;;;0.90;0.50;;;2.80;90.40;;;;;;6247783;22;20008;-82
2022/01/05 05:15:22;;;;;;;2.67;0.60;;;2.80;90.40;;;;;;6248223;22;20042;-82
2022/01/05 05:17:48;;;;;;;1.20;0.55;;;2.80;90.40;;;;;;6275584;22;20065;-81
2022/01/05 05:20:14;;;;;;;4.47;0.80;;;2.80;90.40;;;;;;6250791;22;20066;-81
2022/01/05 05:22:41;;;;;;;1.17;0.40;;;2.90;90.50;;;;;;6274963;22;20034;-81
2022/01/05 05:25:09;;;;;;;2.63;0.90;;;2.80;90.40;;;;;;6249300;22;20002;-81
2022/01/05 05:27:35;;;;;;;2.15;0.60;;;2.80;90.50;;;;;;6300340;22;20447;-81
2022/01/05 05:30:02;;;;;;;3.08;0.70;;;2.90;90.50;;;;;;6248793;22;20000;-81
2022/01/05 05:32:27;;;;;;;0.80;0.50;;;2.90;90.50;;;;;;6248078;22;20003;-81
2022/01/05 05:34:53;;;;;;;2.05;0.73;;;2.90;90.50;;;;;;6248986;22;20018;-81
2022/01/05 05:37:18;;;;;;;3.75;0.65;;;2.90;90.40;;;;;;6273861;22;20066;-81
2022/01/05 05:39:44;;;;;;;2.90;0.80;;;2.90;90.50;;;;;;6273679;22;20364;-81
2022/01/05 05:42:10;;;;;;;3.40;0.90;;;2.90;90.50;;;;;;6275546;22;20000;-81
2022/01/05 05:44:36;;;;;;;2.22;0.75;;;3.00;90.50;;;;;;6249164;22;20061;-81
2022/01/05 05:47:03;;;;;;;2.20;0.80;;;2.90;90.50;;;;;;6248626;22;20419;-81
2022/01/05 05:49:29;;;;;;;2.70;0.80;;;3.10;90.50;;;;;;6222965;22;20018;-81
2022/01/05 05:51:54;;;;;;;2.50;0.70;;;2.90;90.50;;;;;;6222921;22;20003;-81
2022/01/05 05:54:20;;;;;;;1.75;0.80;;;3.10;90.50;;;;;;6248491;22;20497;-80
2022/01/05 05:56:46;;;;;;;2.92;0.93;;;3.00;90.50;;;;;;6222955;22;20396;-81
2022/01/05 05:59:11;;;;;;;3.92;0.70;;;3.00;90.50;;;;;;6273516;22;19995;-81
2022/01/05 06:01:37;;;;;;;1.33;0.47;;;3.10;90.50;;;;;;6250072;22;19996;-81
2022/01/05 06:04:03;;;;;;;2.83;0.65;;;3.10;90.50;;;;;;6275318;22;20003;-82
2022/01/05 06:06:29;;;;;;;0.88;0.60;;;3.00;90.40;;;;;;6277079;22;20004;-81
2022/01/05 06:08:55;;;;;;;2.67;0.77;;;3.10;90.40;;;;;;6223148;22;20097;-81
2022/01/05 06:11:21;;;;;;;2.40;0.60;;;3.10;90.40;;;;;;6276443;22;20008;-81
2022/01/05 06:13:47;;;;;;;2.65;0.85;;;3.20;90.40;;;;;;6275899;22;20104;-82
2022/01/05 06:16:13;;;;;;;2.75;0.82;;;3.20;90.40;;;;;;6249592;22;20015;-81
2022/01/05 06:18:39;;;;;;;2.40;0.70;;;3.20;90.30;;;;;;6274281;22;20000;-80
2022/01/05 06:21:04;;;;;;;3.67;0.80;;;3.30;90.30;;;;;;6247692;22;20000;-81
2022/01/05 06:23:30;;;;;;;4.43;1.10;;;3.40;90.30;;;;;;6222218;22;20004;-81
2022/01/05 06:25:56;;;;;;;4.72;1.20;;;3.40;90.30;;;;;;6250036;22;19999;-80
2022/01/05 06:28:22;;;;;;;6.07;1.05;;;3.50;90.30;;;;;;6224319;22;20380;-81
2022/01/05 06:30:47;;;;;;;3.38;0.90;;;3.50;90.20;;;;;;6248863;22;20039;-80
2022/01/05 06:33:13;;;;;;;3.05;1.00;;;3.60;90.20;;;;;;6275311;22;20082;-81
2022/01/05 06:35:39;;;;;;;1.33;0.70;;;3.70;90.20;;;;;;6248668;22;20046;-82
2022/01/05 06:38:05;;;;;;;3.80;1.10;;;3.60;90.40;;;;;;6273130;22;20000;-82
2022/01/05 06:40:31;;;;;;;2.90;0.80;;;3.70;90.10;;;;;;6247443;22;20274;-79
2022/01/05 06:42:58;;;;;;;3.33;0.98;;;3.70;90.10;;;;;;6222327;22;20003;-81
2022/01/05 06:45:24;;;;;;;3.30;0.90;;;3.70;90.10;;;;;;6273832;22;20011;-80
2022/01/05 06:47:49;;;;;;;5.65;1.30;;;3.80;90.10;;;;;;6247677;22;20340;-80
2022/01/05 06:50:15;;;;;;;4.28;0.98;;;3.80;90.00;;;;;;6273932;22;20007;-81
2022/01/05 06:52:41;;;;;;;3.30;0.93;;;3.90;90.10;;;;;;6247584;22;20011;-80
2022/01/05 06:55:09;;;;;;;4.40;1.17;;;3.90;90.30;;;;;;6247970;22;20370;-80
2022/01/05 06:57:37;;;;;;;4.40;0.90;;;3.90;90.00;;;;;;6274617;22;20012;-80
2022/01/05 07:00:04;;;;;;;3.38;0.90;;;3.90;90.00;;;;;;6248161;22;19996;-80
2022/01/05 07:02:30;;;;;;;3.35;1.17;;;3.90;90.00;;;;;;6299747;22;20010;-79
2022/01/05 07:04:56;;;;;;;6.35;1.30;;;4.00;90.30;;;;;;6247616;22;20000;-81
2022/01/05 07:07:22;;;;;;;4.18;1.73;;;4.00;90.00;;;;;;6222206;22;20407;-81
2022/01/05 07:09:48;;;;;;;4.88;1.25;;;4.00;90.00;;;;;;6273734;22;20002;-80
2022/01/05 07:12:14;;;;;;;5.53;1.48;;;4.10;90.00;;;;;;6298815;22;20023;-81
2022/01/05 07:14:40;;;;;;;6.38;1.52;;;4.10;89.90;;;;;;6272986;22;19996;-81
2022/01/05 07:17:05;;;;;;;4.65;1.30;;;4.10;89.80;;;;;;6272745;22;20012;-80
2022/01/05 07:19:31;;;;;;;2.33;1.10;;;4.20;89.80;;;;;;6273048;22;20004;-80
2022/01/05 07:21:57;;;;;;;3.45;1.27;;;4.20;89.80;;;;;;6267813;22;20000;-80
2022/01/05 07:24:22;;;;;;;2.30;1.15;;;4.30;89.70;;;;;;6275640;22;20376;-80
2022/01/05 07:26:48;;;;;;;5.03;1.50;;;4.20;89.60;;;;;;6247958;22;20008;-80
2022/01/05 07:29:16;;;;;;;6.95;1.20;;;4.30;89.70;;;;;;6272988;22;20061;-80
2022/01/05 07:31:43;;;;;;;7.20;1.65;;;4.30;90.10;;;;;;6222253;22;20331;-80
2022/01/05 07:34:09;;;;;;;5.50;1.40;;;4.30;89.70;;;;;;6249167;22;20008;-80
2022/01/05 07:36:35;;;;;;;3.75;1.23;;;4.30;89.60;;;;;;6222992;22;20038;-79
2022/01/05 07:39:03;;;;;;;3.70;1.00;;;4.40;89.70;;;;;;6274486;22;20004;-78
2022/01/05 07:41:29;;;;;;;9.15;1.73;;;4.30;89.60;;;;;;6273186;22;20049;-80
2022/01/05 07:43:55;;;;;;;3.97;1.23;;;4.40;89.60;;;;;;6273658;22;21294;-81
2022/01/05 07:46:21;;;;;;;4.10;1.25;;;4.50;89.60;;;;;;6247695;22;20007;-82
2022/01/05 07:48:46;;;;;;;6.38;1.38;;;4.40;89.50;;;;;;6247641;22;20399;-81
2022/01/05 07:51:13;;;;;;;4.90;1.27;;;4.50;89.50;;;;;;6274282;22;20011;-80
2022/01/05 07:53:39;;;;;;;4.88;1.38;;;4.50;89.50;;;;;;6222058;22;20006;-81
2022/01/05 07:56:05;;;;;;;4.72;1.50;;;4.50;89.40;;;;;;6272954;22;20037;-80
2022/01/05 07:58:31;;;;;;;7.53;1.73;;;4.50;90.00;;;;;;6247261;22;20004;-81
2022/01/05 08:00:56;;;;;;;8.45;1.35;;;4.60;89.50;;;;;;6247818;22;20062;-81
2022/01/05 08:03:22;;;;;;;5.35;1.35;;;4.60;89.40;;;;;;6271402;22;20003;-81
2022/01/05 08:05:50;;;;;;;5.50;1.30;;;4.60;89.30;;;;;;6273156;22;20436;-82
2022/01/05 08:08:19;;;;;;;9.25;1.40;;;4.60;89.30;;;;;;6225079;22;20012;-83
2022/01/05 08:10:45;;;;;;;4.97;1.20;;;4.70;89.30;;;;;;6222234;22;20000;-80
2022/01/05 08:13:11;;;;;;;6.75;1.40;;;4.70;89.20;;;;;;6221513;22;20011;-80
2022/01/05 08:15:36;;;;;;;4.03;1.50;;;4.70;89.10;;;;;;6274531;22;20085;-80
2022/01/05 08:18:02;;;;;;;3.85;1.40;;;4.70;89.10;;;;;;6246683;22;20055;-80
2022/01/05 08:20:28;;;;;;;4.20;1.20;;;4.70;89.10;;;;;;6247140;22;20004;-81
2022/01/05 08:22:53;;;;;;;7.65;1.70;;;4.80;89.10;;;;;;6271331;22;20008;-79
2022/01/05 08:25:20;;;;;;;3.20;1.10;;;4.80;89.10;;;;;;6247247;22;20011;-78
2022/01/05 08:27:47;;;;;;;7.60;1.50;;;4.70;89.20;;;;;;6274693;22;20447;-79
2022/01/05 08:30:16;;;;;;;3.58;1.65;;;4.70;89.30;;;;;;6272368;22;20011;-77
2022/01/05 08:32:43;;;;;;;4.32;1.40;;;4.70;89.40;;;;;;6272367;22;20000;-77
2022/01/05 08:35:10;;;;;;;5.97;1.38;;;4.70;89.50;;;;;;6274360;22;20038;-77
2022/01/05 08:37:36;;;;;;;7.03;1.42;;;4.70;89.50;;;;;;6247032;22;20501;-77
2022/01/05 08:40:03;;;;;;;3.42;1.30;;;4.60;89.60;;;;;;6272098;22;20000;-77
2022/01/05 08:42:29;;;;;;;10.05;1.92;;;4.60;89.70;;;;;;6246701;22;19999;-77
2022/01/05 08:44:55;;;;;;;10.35;2.13;;;4.60;89.80;;;;;;6246701;22;20008;-78
2022/01/05 08:47:21;;;;;;;4.22;1.60;;;4.70;89.80;;;;;;6221676;22;19996;-77
2022/01/05 08:49:47;;;;;;;4.15;1.42;;;4.70;89.90;;;;;;6221470;22;20008;-77
2022/01/05 08:52:13;;;;;;;7.28;1.85;;;4.70;90.00;;;;;;6272839;22;20110;-80
2022/01/05 08:54:38;;;;;;;8.77;1.88;;;4.70;90.00;;;;;;6249965;22;20000;-81
2022/01/05 08:57:05;;;;;;;4.97;1.60;;;4.80;90.00;;;;;;6249218;22;20012;-81
2022/01/05 08:59:30;;;;;;;9.60;2.10;;;4.80;90.00;;;;;;6244960;22;20424;-80
2022/01/05 09:01:56;;;;;;;6.38;1.67;;;4.70;90.00;;;;;;6219267;22;20007;-81
2022/01/05 09:04:22;;;;;;;9.05;2.10;;;4.70;90.10;;;;;;6220560;22;20058;-80
2022/01/05 09:06:48;;;;;;;9.38;2.13;;;4.80;90.10;;;;;;6272710;22;21103;-82
2022/01/05 09:09:14;;;;;;;4.15;1.40;;;4.70;90.10;;;;;;6243880;22;20488;-80
2022/01/05 09:11:40;;;;;;;7.18;1.88;;;4.70;90.20;;;;;;6244017;22;20047;-82
2022/01/05 09:14:05;;;;;;;5.65;1.38;;;4.60;90.20;;;;;;6243856;22;20067;-79
2022/01/05 09:16:32;;;;;;;6.47;1.80;;;4.70;90.30;;;;;;6243533;22;20495;-79
2022/01/05 09:18:58;;;;;;;6.47;1.58;;;4.60;90.30;;;;;;6272864;22;20036;-80
2022/01/05 09:21:24;;;;;;;4.55;1.88;;;4.60;90.40;;;;;;6218686;22;20385;-80
2022/01/05 09:23:50;;;;;;;5.20;1.92;;;4.50;90.40;;;;;;6272241;22;20008;-81
2022/01/05 09:26:16;;;;;;;7.72;1.73;;;4.60;90.50;;;;;;6246654;22;19996;-80
2022/01/05 09:28:44;;;;;;;5.20;1.48;;;4.60;90.50;;;;;;6246405;22;20460;-79
2022/01/05 09:31:11;;;;;;;6.78;1.75;;;4.60;90.50;;;;;;6246852;22;20054;-80
2022/01/05 09:33:37;;;;;;;7.63;1.73;;;4.60;90.50;;;;;;6247555;22;20386;-79
2022/01/05 09:36:11;;;;;;;5.50;1.70;;;4.60;90.60;;;;;;6248094;22;20010;-80
2022/01/05 09:44:06;;;;;;;;;;;4.70;90.60;;;;;;6274350;22;20011;-79
2022/01/05 09:46:44;;;;;;;5.43;1.58;;;4.70;90.60;;;;;;6273577;22;19953;-79
2022/01/05 09:49:17;;;;;;;5.45;1.38;;;4.70;90.60;;;;;;6224611;22;20010;-79
2022/01/05 09:51:43;;;;;;;8.40;2.13;;;4.70;90.70;;;;;;6273724;22;20025;-80
2022/01/05 09:54:11;;;;;;;6.40;1.55;;;4.70;90.70;;;;;;6248010;22;19999;-80
2022/01/05 09:56:37;;;;;;;7.18;1.50;;;4.70;90.70;;;;;;6223081;22;20379;-79
2022/01/05 09:59:04;;;;;;;3.33;1.25;;;4.80;91.00;;;;;;6248337;22;20003;-80
2022/01/05 10:01:35;;;;;;;6.50;1.60;;;4.70;90.70;;;;;;6223107;22;20016;-80
2022/01/05 10:04:01;;;;;;;6.57;1.55;;;4.80;90.80;;;;;;6273756;22;20010;-79
2022/01/05 10:06:27;;;;;;;6.45;1.27;;;4.70;90.90;;;;;;6273542;22;20000;-79
2022/01/05 10:08:53;;;;;;;3.85;1.33;;;4.70;90.90;;;;;;6247854;22;20364;-80
2022/01/05 10:11:22;;;;;;;4.75;1.30;;;4.70;90.90;;;;;;6273602;22;20035;-80
2022/01/05 10:13:49;;;;;;;5.55;1.67;;;4.70;91.00;;;;;;6274091;22;20000;-79
2022/01/05 10:16:15;;;;;;;6.72;1.48;;;4.80;91.00;;;;;;6275497;22;20066;-80
2022/01/05 10:18:43;;;;;;;6.38;1.50;;;4.80;91.00;;;;;;6222972;22;20000;-79
2022/01/05 10:21:12;;;;;;;5.72;1.35;;;4.90;91.00;;;;;;6248490;22;20007;-81
2022/01/05 10:23:42;;;;;;;11.95;2.00;;;4.80;91.00;;;;;;6274963;22;20435;-81
2022/01/05 10:26:40;;;;;;;9.07;1.98;;;4.90;91.00;;;;;;6275074;22;20004;-80
2022/01/05 10:29:13;;;;;;;7.53;1.70;;;4.90;91.10;;;;;;6248028;22;20010;-79
2022/01/05 10:31:42;;;;;;;4.30;1.38;;;5.00;91.10;;;;;;6273651;22;20000;-81
2022/01/05 10:34:18;;;;;;;6.13;1.58;;;5.00;91.10;;;;;;6274115;22;20000;-81
2022/01/05 10:36:46;;;;;;;9.50;1.73;;;5.20;91.20;;;;;;6248204;22;20016;-81
2022/01/05 10:39:12;;;;;;;9.50;2.00;;;5.10;91.20;;;;;;6248649;22;20012;-80
2022/01/05 10:41:40;;;;;;;7.18;1.60;;;5.10;91.20;;;;;;6222857;22;20006;-82
2022/01/05 10:44:18;;;;;;;7.15;1.60;;;5.10;91.20;;;;;;6247906;22;20008;-81
2022/01/05 10:46:49;;;;;;;6.93;1.58;;;5.20;91.20;;;;;;6248643;22;19996;-81
2022/01/05 10:49:25;;;;;;;5.60;1.35;;;5.30;91.20;;;;;;6248340;22;20018;-80
2022/01/05 10:51:51;;;;;;;5.70;1.42;;;5.20;91.20;;;;;;6299816;22;20004;-82
2022/01/05 10:54:20;;;;;;;7.72;1.65;;;5.30;91.20;;;;;;6275149;22;20057;-81
2022/01/05 10:56:47;;;;;;;6.28;1.50;;;5.30;91.20;;;;;;6222795;22;20061;-80
2022/01/05 10:59:14;;;;;;;5.10;1.27;;;5.40;91.30;;;;;;6248078;22;19996;-81
2022/01/05 11:01:42;;;;;;;6.25;1.50;;;5.30;91.30;;;;;;6223533;22;20053;-80
2022/01/05 11:04:18;;;;;;;5.07;1.50;;;5.40;91.30;;;;;;6247688;22;20022;-80
2022/01/05 11:06:58;;;;;;;8.82;1.75;;;5.60;91.30;;;;;;6273502;22;19996;-80
2022/01/05 11:09:25;;;;;;;8.98;1.95;;;5.60;91.30;;;;;;6267400;22;19999;-81
2022/01/05 11:11:51;;;;;;;8.65;1.70;;;5.60;91.30;;;;;;6247643;22;20145;-81
2022/01/05 11:14:29;;;;;;;7.28;1.90;;;5.70;91.20;;;;;;6284828;22;20027;-81
2022/01/05 11:16:56;;;;;;;9.55;1.70;;;5.80;91.20;;;;;;6274504;22;20014;-82
2022/01/05 11:19:28;;;;;;;7.18;2.00;;;5.70;91.20;;;;;;6248389;22;20011;-82
2022/01/05 11:22:18;;;;;;;6.55;2.03;;;5.70;91.30;;;;;;6249102;22;20004;-82
2022/01/05 11:24:48;;;;;;;8.70;1.35;;;5.60;91.40;;;;;;6301844;22;20003;-82
2022/01/05 11:27:21;;;;;;;6.43;1.75;;;5.60;91.40;;;;;;6275760;22;20050;-83
2022/01/05 11:29:56;;;;;;;5.00;1.10;;;5.60;91.50;;;;;;6249785;22;20004;-80
2022/01/05 11:32:26;;;;;;;3.67;1.20;;;5.50;91.50;;;;;;6226616;22;20000;-82
2022/01/05 11:34:52;;;;;;;4.82;1.45;;;5.50;91.60;;;;;;6275879;22;20313;-84
2022/01/05 11:37:19;;;;;;;2.92;1.25;;;5.50;91.70;;;;;;6248317;22;20574;-81
2022/01/05 11:39:52;;;;;;;6.20;1.05;;;5.60;91.70;;;;;;6299241;22;20047;-83
2022/01/05 11:42:29;;;;;;;3.42;0.90;;;5.60;91.70;;;;;;6250708;22;20015;-79
2022/01/05 11:44:56;;;;;;;4.32;1.10;;;5.50;91.70;;;;;;6276891;22;20026;-80
2022/01/05 11:47:27;;;;;;;5.47;1.20;;;5.60;91.80;;;;;;6292601;22;19995;-81
2022/01/05 11:50:14;;;;;;;5.15;1.00;;;5.60;91.80;;;;;;6226082;22;20003;-82
2022/01/05 11:52:55;;;;;;;5.55;1.17;;;5.60;91.80;;;;;;6275683;22;20031;-81
2022/01/05 11:55:22;;;;;;;3.08;0.80;;;5.50;91.80;;;;;;6297804;22;20022;-80
2022/01/05 11:58:16;;;;;;;5.10;1.17;;;5.60;91.80;;;;;;6246706;22;20004;-79
2022/01/05 12:00:43;;;;;;;4.40;1.00;;;5.70;91.80;;;;;;6274750;22;20432;-81
2022/01/05 12:03:09;;;;;;;3.75;0.82;;;5.70;91.80;;;;;;6247435;22;20003;-81
2022/01/05 12:06:07;;;;;;;4.18;0.80;;;5.70;91.70;;;;;;6247104;22;20000;-81
2022/01/05 12:08:51;;;;;;;3.15;1.10;;;5.80;91.80;;;;;;6274536;22;20002;-81
2022/01/05 12:11:34;;;;;;;4.32;0.77;;;5.70;92.00;;;;;;6247676;22;20006;-82
2022/01/05 12:14:21;;;;;;;3.97;0.88;;;5.90;91.80;;;;;;6247049;22;20332;-80
2022/01/05 12:17:10;;;;;;;4.07;1.05;;;5.90;91.70;;;;;;6272586;22;20027;-78
2022/01/05 12:20:04;;;;;;;3.58;1.10;;;5.90;91.60;;;;;;6226648;22;20447;-78
2022/01/05 12:22:31;;;;;;;7.10;1.55;;;6.00;91.70;;;;;;6273989;22;20000;-79
2022/01/05 12:25:07;;;;;;;7.22;1.15;;;6.00;91.60;;;;;;6285345;22;20007;-80
2022/01/05 12:27:48;;;;;;;6.70;1.30;;;6.00;91.60;;;;;;6191214;23;20435;-83
2022/01/05 12:30:38;;;;;;;6.10;1.48;;;6.10;91.70;;;;;;6126352;23;20033;-82
2022/01/05 12:33:19;;;;;;;6.80;1.63;;;6.10;91.70;;;;;;6131050;23;20085;-84
2022/01/05 12:35:54;;;;;;;2.47;0.90;;;6.00;91.70;;;;;;6042026;23;20352;-81
2022/01/05 12:38:41;;;;;;;4.47;1.23;;;6.00;91.70;;;;;;6060606;23;20019;-84
2022/01/05 12:41:28;;;;;;;4.45;1.25;;;6.00;91.70;;;;;;6034599;23;20008;-85
2022/01/05 12:43:56;;;;;;;3.83;1.00;;;6.00;91.70;;;;;;6011713;23;20082;-79
2022/01/05 12:46:38;;;;;;;4.43;1.25;;;6.10;91.80;;;;;;5994912;23;20067;-80
2022/01/05 12:49:13;;;;;;;7.75;1.85;;;6.10;91.80;;;;;;5996894;23;20472;-79
2022/01/05 12:51:44;;;;;;;2.78;1.10;;;6.20;91.80;;;;;;6034791;23;20448;-78
2022/01/05 12:54:16;;;;;;;5.78;1.25;;;6.20;91.80;;;;;;6034558;23;20539;-79
2022/01/05 12:56:49;;;;;;;6.47;1.40;;;6.20;91.80;;;;;;5987185;23;20023;-78
2022/01/05 12:59:22;;;;;;;7.78;1.77;;;6.20;91.80;;;;;;6058159;23;20036;-79
2022/01/05 13:01:51;;;;;;;4.45;1.20;;;6.20;91.80;;;;;;6169702;23;20134;-79
2022/01/05 13:04:18;;;;;;;4.45;1.27;;;6.20;91.80;;;;;;6186985;23;20013;-79
2022/01/05 13:06:45;;;;;;;6.93;1.85;;;6.10;91.80;;;;;;6216754;22;20348;-79
2022/01/05 13:09:13;;;;;;;5.57;1.48;;;6.20;91.90;;;;;;6273070;22;20110;-78